sensor_id;sensor_type;location;lat;lon;timestamp;P1;durP1;ratioP1;P2;durP2;ratioP2
13849;SDS011;6995;52.618;13.488;2024-03-08T00:00:18;43.13;;;39.03;;
13849;SDS011;6995;52.618;13.488;2024-03-08T00:02:44;39.83;;;35.93;;
13849;SDS011;6995;52.618;13.488;2024-03-08T00:05:11;41.97;;;37.80;;
13849;SDS011;6995;52.618;13.488;2024-03-08T00:07:40;42.93;;;38.73;;
13849;SDS011;6995;52.618;13.488;2024-03-08T00:10:07;44.43;;;40.07;;
13849;SDS011;6995;52.618;13.488;2024-03-08T00:12:36;41.97;;;37.97;;
13849;SDS011;6995;52.618;13.488;2024-03-08T00:15:02;42.63;;;38.47;;
13849;SDS011;6995;52.618;13.488;2024-03-08T00:17:28;43.33;;;38.97;;
13849;SDS011;6995;52.618;13.488;2024-03-08T00:19:54;40.67;;;36.67;;
13849;SDS011;6995;52.618;13.488;2024-03-08T00:22:19;40.90;;;36.90;;
13849;SDS011;6995;52.618;13.488;2024-03-08T00:24:47;39.27;;;35.50;;
13849;SDS011;6995;52.618;13.488;2024-03-08T00:27:14;39.80;;;35.87;;
13849;SDS011;6995;52.618;13.488;2024-03-08T00:29:40;40.13;;;36.10;;
13849;SDS011;6995;52.618;13.488;2024-03-08T00:32:06;43.27;;;38.97;;
13849;SDS011;6995;52.618;13.488;2024-03-08T00:34:35;41.73;;;38.03;;
13849;SDS011;6995;52.618;13.488;2024-03-08T00:37:01;40.10;;;36.10;;
13849;SDS011;6995;52.618;13.488;2024-03-08T00:39:28;42.33;;;38.00;;
13849;SDS011;6995;52.618;13.488;2024-03-08T00:41:53;40.27;;;36.23;;
13849;SDS011;6995;52.618;13.488;2024-03-08T00:44:19;39.20;;;35.33;;
13849;SDS011;6995;52.618;13.488;2024-03-08T00:46:45;43.00;;;38.80;;
13849;SDS011;6995;52.618;13.488;2024-03-08T00:49:10;42.87;;;38.40;;
13849;SDS011;6995;52.618;13.488;2024-03-08T00:51:37;39.70;;;35.67;;
13849;SDS011;6995;52.618;13.488;2024-03-08T00:54:03;39.93;;;36.00;;
13849;SDS011;6995;52.618;13.488;2024-03-08T00:56:29;41.13;;;37.13;;
13849;SDS011;6995;52.618;13.488;2024-03-08T00:58:54;42.80;;;38.37;;
13849;SDS011;6995;52.618;13.488;2024-03-08T01:01:20;41.03;;;37.07;;
13849;SDS011;6995;52.618;13.488;2024-03-08T01:03:45;42.27;;;37.97;;
13849;SDS011;6995;52.618;13.488;2024-03-08T01:06:11;43.00;;;38.67;;
13849;SDS011;6995;52.618;13.488;2024-03-08T01:08:37;41.90;;;37.17;;
13849;SDS011;6995;52.618;13.488;2024-03-08T01:11:07;43.67;;;39.23;;
13849;SDS011;6995;52.618;13.488;2024-03-08T01:13:33;43.30;;;39.07;;
13849;SDS011;6995;52.618;13.488;2024-03-08T01:15:59;44.87;;;40.50;;
13849;SDS011;6995;52.618;13.488;2024-03-08T01:18:25;44.77;;;40.43;;
13849;SDS011;6995;52.618;13.488;2024-03-08T01:20:50;43.27;;;39.17;;
13849;SDS011;6995;52.618;13.488;2024-03-08T01:23:16;44.57;;;39.97;;
13849;SDS011;6995;52.618;13.488;2024-03-08T01:25:42;41.53;;;37.17;;
13849;SDS011;6995;52.618;13.488;2024-03-08T01:28:09;42.73;;;38.53;;
13849;SDS011;6995;52.618;13.488;2024-03-08T01:30:34;45.87;;;41.23;;
13849;SDS011;6995;52.618;13.488;2024-03-08T01:33:01;43.80;;;37.47;;
13849;SDS011;6995;52.618;13.488;2024-03-08T01:35:27;41.40;;;37.37;;
13849;SDS011;6995;52.618;13.488;2024-03-08T01:37:53;39.03;;;35.27;;
13849;SDS011;6995;52.618;13.488;2024-03-08T01:40:18;43.63;;;39.53;;
13849;SDS011;6995;52.618;13.488;2024-03-08T01:42:44;41.27;;;37.30;;
13849;SDS011;6995;52.618;13.488;2024-03-08T01:45:10;41.20;;;37.17;;
13849;SDS011;6995;52.618;13.488;2024-03-08T01:47:35;42.30;;;38.20;;
13849;SDS011;6995;52.618;13.488;2024-03-08T01:50:02;44.20;;;39.90;;
13849;SDS011;6995;52.618;13.488;2024-03-08T01:52:31;42.23;;;37.93;;
13849;SDS011;6995;52.618;13.488;2024-03-08T01:54:59;44.47;;;39.97;;
13849;SDS011;6995;52.618;13.488;2024-03-08T01:57:26;46.17;;;41.90;;
13849;SDS011;6995;52.618;13.488;2024-03-08T01:59:53;43.47;;;39.20;;
13849;SDS011;6995;52.618;13.488;2024-03-08T02:02:20;41.53;;;37.93;;
13849;SDS011;6995;52.618;13.488;2024-03-08T02:04:47;42.50;;;38.70;;
13849;SDS011;6995;52.618;13.488;2024-03-08T02:07:13;39.77;;;35.97;;
13849;SDS011;6995;52.618;13.488;2024-03-08T02:09:39;42.60;;;38.60;;
13849;SDS011;6995;52.618;13.488;2024-03-08T02:12:05;45.23;;;41.00;;
13849;SDS011;6995;52.618;13.488;2024-03-08T02:14:31;45.67;;;41.53;;
13849;SDS011;6995;52.618;13.488;2024-03-08T02:17:01;44.87;;;40.60;;
13849;SDS011;6995;52.618;13.488;2024-03-08T02:19:26;45.57;;;40.97;;
13849;SDS011;6995;52.618;13.488;2024-03-08T02:21:52;46.40;;;41.90;;
13849;SDS011;6995;52.618;13.488;2024-03-08T02:24:18;43.17;;;39.00;;
13849;SDS011;6995;52.618;13.488;2024-03-08T02:26:44;47.40;;;42.93;;
13849;SDS011;6995;52.618;13.488;2024-03-08T02:29:09;44.77;;;39.90;;
13849;SDS011;6995;52.618;13.488;2024-03-08T02:31:35;44.00;;;39.57;;
13849;SDS011;6995;52.618;13.488;2024-03-08T02:34:01;48.00;;;43.30;;
13849;SDS011;6995;52.618;13.488;2024-03-08T02:36:27;45.57;;;41.20;;
13849;SDS011;6995;52.618;13.488;2024-03-08T02:38:52;45.60;;;41.00;;
13849;SDS011;6995;52.618;13.488;2024-03-08T02:41:20;47.30;;;43.07;;
13849;SDS011;6995;52.618;13.488;2024-03-08T02:43:46;46.03;;;41.20;;
13849;SDS011;6995;52.618;13.488;2024-03-08T02:46:11;53.13;;;48.67;;
13849;SDS011;6995;52.618;13.488;2024-03-08T02:48:37;44.87;;;40.57;;
13849;SDS011;6995;52.618;13.488;2024-03-08T02:51:02;50.30;;;45.80;;
13849;SDS011;6995;52.618;13.488;2024-03-08T02:53:28;50.70;;;45.80;;
13849;SDS011;6995;52.618;13.488;2024-03-08T02:55:54;53.30;;;48.50;;
13849;SDS011;6995;52.618;13.488;2024-03-08T02:58:20;50.50;;;45.83;;
13849;SDS011;6995;52.618;13.488;2024-03-08T03:00:45;42.67;;;38.67;;
13849;SDS011;6995;52.618;13.488;2024-03-08T03:03:11;44.80;;;40.40;;
13849;SDS011;6995;52.618;13.488;2024-03-08T03:05:36;45.87;;;41.37;;
13849;SDS011;6995;52.618;13.488;2024-03-08T03:08:02;47.33;;;42.40;;
13849;SDS011;6995;52.618;13.488;2024-03-08T03:10:33;47.70;;;43.20;;
13849;SDS011;6995;52.618;13.488;2024-03-08T03:12:59;47.47;;;42.53;;
13849;SDS011;6995;52.618;13.488;2024-03-08T03:15:25;50.07;;;45.07;;
13849;SDS011;6995;52.618;13.488;2024-03-08T03:17:50;47.37;;;42.53;;
13849;SDS011;6995;52.618;13.488;2024-03-08T03:20:16;45.00;;;40.63;;
13849;SDS011;6995;52.618;13.488;2024-03-08T03:22:50;46.27;;;41.83;;
13849;SDS011;6995;52.618;13.488;2024-03-08T03:25:19;48.23;;;43.87;;
13849;SDS011;6995;52.618;13.488;2024-03-08T03:27:54;45.80;;;41.50;;
13849;SDS011;6995;52.618;13.488;2024-03-08T03:30:21;46.67;;;41.80;;
13849;SDS011;6995;52.618;13.488;2024-03-08T03:32:48;45.73;;;41.40;;
13849;SDS011;6995;52.618;13.488;2024-03-08T03:35:19;47.73;;;43.30;;
13849;SDS011;6995;52.618;13.488;2024-03-08T03:37:45;52.00;;;47.53;;
13849;SDS011;6995;52.618;13.488;2024-03-08T03:40:26;46.30;;;41.60;;
13849;SDS011;6995;52.618;13.488;2024-03-08T03:42:53;45.60;;;41.07;;
13849;SDS011;6995;52.618;13.488;2024-03-08T03:45:19;46.17;;;41.50;;
13849;SDS011;6995;52.618;13.488;2024-03-08T03:47:45;45.70;;;41.30;;
13849;SDS011;6995;52.618;13.488;2024-03-08T03:50:11;45.57;;;40.87;;
13849;SDS011;6995;52.618;13.488;2024-03-08T03:52:36;44.13;;;39.67;;
13849;SDS011;6995;52.618;13.488;2024-03-08T03:55:02;44.30;;;40.00;;
13849;SDS011;6995;52.618;13.488;2024-03-08T03:57:30;46.93;;;42.07;;
13849;SDS011;6995;52.618;13.488;2024-03-08T03:59:56;43.30;;;39.20;;
13849;SDS011;6995;52.618;13.488;2024-03-08T04:02:23;45.07;;;40.53;;
13849;SDS011;6995;52.618;13.488;2024-03-08T04:04:51;45.77;;;41.50;;
13849;SDS011;6995;52.618;13.488;2024-03-08T04:07:17;46.83;;;42.13;;
13849;SDS011;6995;52.618;13.488;2024-03-08T04:09:42;44.83;;;40.30;;
13849;SDS011;6995;52.618;13.488;2024-03-08T04:12:08;45.17;;;40.33;;
13849;SDS011;6995;52.618;13.488;2024-03-08T04:14:34;50.53;;;46.00;;
13849;SDS011;6995;52.618;13.488;2024-03-08T04:17:00;44.30;;;39.73;;
13849;SDS011;6995;52.618;13.488;2024-03-08T04:19:27;46.27;;;39.77;;
13849;SDS011;6995;52.618;13.488;2024-03-08T04:21:53;44.07;;;39.57;;
13849;SDS011;6995;52.618;13.488;2024-03-08T04:24:19;46.83;;;42.03;;
13849;SDS011;6995;52.618;13.488;2024-03-08T04:26:45;46.30;;;41.70;;
13849;SDS011;6995;52.618;13.488;2024-03-08T04:29:11;46.60;;;42.03;;
13849;SDS011;6995;52.618;13.488;2024-03-08T04:31:39;45.03;;;40.70;;
13849;SDS011;6995;52.618;13.488;2024-03-08T04:34:05;48.70;;;43.83;;
13849;SDS011;6995;52.618;13.488;2024-03-08T04:36:30;46.67;;;42.27;;
13849;SDS011;6995;52.618;13.488;2024-03-08T04:38:56;44.57;;;40.40;;
13849;SDS011;6995;52.618;13.488;2024-03-08T04:41:21;44.83;;;40.23;;
13849;SDS011;6995;52.618;13.488;2024-03-08T04:43:48;46.77;;;41.97;;
13849;SDS011;6995;52.618;13.488;2024-03-08T04:46:14;45.97;;;41.57;;
13849;SDS011;6995;52.618;13.488;2024-03-08T04:48:39;45.47;;;40.73;;
13849;SDS011;6995;52.618;13.488;2024-03-08T04:51:07;58.03;;;53.53;;
13849;SDS011;6995;52.618;13.488;2024-03-08T04:53:33;47.13;;;42.07;;
13849;SDS011;6995;52.618;13.488;2024-03-08T04:55:59;47.53;;;43.00;;
13849;SDS011;6995;52.618;13.488;2024-03-08T04:58:25;46.60;;;41.43;;
13849;SDS011;6995;52.618;13.488;2024-03-08T05:00:50;47.17;;;42.17;;
13849;SDS011;6995;52.618;13.488;2024-03-08T05:03:17;46.00;;;41.43;;
13849;SDS011;6995;52.618;13.488;2024-03-08T05:05:43;47.80;;;42.60;;
13849;SDS011;6995;52.618;13.488;2024-03-08T05:08:08;47.53;;;42.13;;
13849;SDS011;6995;52.618;13.488;2024-03-08T05:10:34;47.73;;;42.70;;
13849;SDS011;6995;52.618;13.488;2024-03-08T05:12:59;48.03;;;42.90;;
13849;SDS011;6995;52.618;13.488;2024-03-08T05:15:25;45.70;;;41.27;;
13849;SDS011;6995;52.618;13.488;2024-03-08T05:17:50;50.30;;;44.73;;
13849;SDS011;6995;52.618;13.488;2024-03-08T05:20:16;47.70;;;42.67;;
13849;SDS011;6995;52.618;13.488;2024-03-08T05:22:42;46.03;;;41.23;;
13849;SDS011;6995;52.618;13.488;2024-03-08T05:25:08;47.77;;;42.87;;
13849;SDS011;6995;52.618;13.488;2024-03-08T05:27:34;46.33;;;41.73;;
13849;SDS011;6995;52.618;13.488;2024-03-08T05:30:01;48.10;;;43.17;;
13849;SDS011;6995;52.618;13.488;2024-03-08T05:32:30;48.67;;;43.53;;
13849;SDS011;6995;52.618;13.488;2024-03-08T05:34:56;48.07;;;43.23;;
13849;SDS011;6995;52.618;13.488;2024-03-08T05:37:22;44.33;;;39.90;;
13849;SDS011;6995;52.618;13.488;2024-03-08T05:39:48;47.43;;;42.70;;
13849;SDS011;6995;52.618;13.488;2024-03-08T05:42:13;43.90;;;39.17;;
13849;SDS011;6995;52.618;13.488;2024-03-08T05:44:39;50.30;;;45.27;;
13849;SDS011;6995;52.618;13.488;2024-03-08T05:47:05;49.93;;;44.80;;
13849;SDS011;6995;52.618;13.488;2024-03-08T05:49:32;47.67;;;42.37;;
13849;SDS011;6995;52.618;13.488;2024-03-08T05:51:58;50.03;;;44.13;;
13849;SDS011;6995;52.618;13.488;2024-03-08T05:54:25;47.80;;;42.93;;
13849;SDS011;6995;52.618;13.488;2024-03-08T05:56:52;49.57;;;44.27;;
13849;SDS011;6995;52.618;13.488;2024-03-08T05:59:18;46.77;;;42.17;;
13849;SDS011;6995;52.618;13.488;2024-03-08T06:01:43;50.67;;;45.50;;
13849;SDS011;6995;52.618;13.488;2024-03-08T06:04:11;49.87;;;44.73;;
13849;SDS011;6995;52.618;13.488;2024-03-08T06:06:36;46.93;;;42.07;;
13849;SDS011;6995;52.618;13.488;2024-03-08T06:09:02;52.20;;;46.60;;
13849;SDS011;6995;52.618;13.488;2024-03-08T06:11:36;53.30;;;48.17;;
13849;SDS011;6995;52.618;13.488;2024-03-08T06:14:02;49.70;;;44.87;;
13849;SDS011;6995;52.618;13.488;2024-03-08T06:16:28;47.80;;;43.30;;
13849;SDS011;6995;52.618;13.488;2024-03-08T06:18:54;50.53;;;45.87;;
13849;SDS011;6995;52.618;13.488;2024-03-08T06:21:22;48.50;;;40.30;;
13849;SDS011;6995;52.618;13.488;2024-03-08T06:23:48;48.10;;;43.17;;
13849;SDS011;6995;52.618;13.488;2024-03-08T06:26:13;48.37;;;43.50;;
13849;SDS011;6995;52.618;13.488;2024-03-08T06:28:39;51.27;;;46.07;;
13849;SDS011;6995;52.618;13.488;2024-03-08T06:31:04;54.63;;;49.10;;
13849;SDS011;6995;52.618;13.488;2024-03-08T06:33:30;49.23;;;44.10;;
13849;SDS011;6995;52.618;13.488;2024-03-08T06:35:57;47.10;;;42.03;;
13849;SDS011;6995;52.618;13.488;2024-03-08T06:38:26;53.03;;;47.70;;
13849;SDS011;6995;52.618;13.488;2024-03-08T06:40:52;48.70;;;41.33;;
13849;SDS011;6995;52.618;13.488;2024-03-08T06:43:18;46.57;;;41.67;;
13849;SDS011;6995;52.618;13.488;2024-03-08T06:45:47;54.53;;;44.20;;
13849;SDS011;6995;52.618;13.488;2024-03-08T06:48:16;49.20;;;44.33;;
13849;SDS011;6995;52.618;13.488;2024-03-08T06:50:42;51.27;;;44.80;;
13849;SDS011;6995;52.618;13.488;2024-03-08T06:53:09;50.40;;;44.67;;
13849;SDS011;6995;52.618;13.488;2024-03-08T06:55:35;55.57;;;50.07;;
13849;SDS011;6995;52.618;13.488;2024-03-08T06:58:01;54.00;;;48.47;;
13849;SDS011;6995;52.618;13.488;2024-03-08T07:00:29;50.73;;;45.87;;
13849;SDS011;6995;52.618;13.488;2024-03-08T07:02:55;57.17;;;52.13;;
13849;SDS011;6995;52.618;13.488;2024-03-08T07:05:25;49.03;;;44.10;;
13849;SDS011;6995;52.618;13.488;2024-03-08T07:07:51;50.93;;;45.90;;
13849;SDS011;6995;52.618;13.488;2024-03-08T07:10:18;49.70;;;44.73;;
13849;SDS011;6995;52.618;13.488;2024-03-08T07:12:44;49.97;;;44.60;;
13849;SDS011;6995;52.618;13.488;2024-03-08T07:15:11;51.93;;;45.03;;
13849;SDS011;6995;52.618;13.488;2024-03-08T07:17:40;52.63;;;47.35;;
13849;SDS011;6995;52.618;13.488;2024-03-08T07:20:09;52.87;;;47.13;;
13849;SDS011;6995;52.618;13.488;2024-03-08T07:22:37;56.57;;;51.13;;
13849;SDS011;6995;52.618;13.488;2024-03-08T07:25:05;48.90;;;43.53;;
13849;SDS011;6995;52.618;13.488;2024-03-08T07:27:52;51.67;;;46.47;;
13849;SDS011;6995;52.618;13.488;2024-03-08T07:30:19;49.60;;;44.33;;
13849;SDS011;6995;52.618;13.488;2024-03-08T07:33:09;50.47;;;44.97;;
13849;SDS011;6995;52.618;13.488;2024-03-08T07:35:38;51.23;;;46.33;;
13849;SDS011;6995;52.618;13.488;2024-03-08T07:38:05;51.40;;;45.83;;
13849;SDS011;6995;52.618;13.488;2024-03-08T07:40:35;94.90;;;87.33;;
13849;SDS011;6995;52.618;13.488;2024-03-08T07:43:08;51.40;;;46.37;;
13849;SDS011;6995;52.618;13.488;2024-03-08T07:45:35;52.87;;;44.27;;
13849;SDS011;6995;52.618;13.488;2024-03-08T07:48:01;50.13;;;45.27;;
13849;SDS011;6995;52.618;13.488;2024-03-08T07:50:28;44.80;;;40.40;;
13849;SDS011;6995;52.618;13.488;2024-03-08T07:52:53;50.53;;;45.83;;
13849;SDS011;6995;52.618;13.488;2024-03-08T07:55:19;46.47;;;41.93;;
13849;SDS011;6995;52.618;13.488;2024-03-08T07:57:45;51.57;;;45.60;;
13849;SDS011;6995;52.618;13.488;2024-03-08T08:00:12;50.43;;;45.27;;
13849;SDS011;6995;52.618;13.488;2024-03-08T08:02:42;46.97;;;42.13;;
13849;SDS011;6995;52.618;13.488;2024-03-08T08:05:10;46.77;;;42.13;;
13849;SDS011;6995;52.618;13.488;2024-03-08T08:07:36;49.50;;;44.53;;
13849;SDS011;6995;52.618;13.488;2024-03-08T08:10:02;52.00;;;46.50;;
13849;SDS011;6995;52.618;13.488;2024-03-08T08:12:27;46.40;;;41.67;;
13849;SDS011;6995;52.618;13.488;2024-03-08T08:14:54;47.07;;;42.40;;
13849;SDS011;6995;52.618;13.488;2024-03-08T08:17:19;43.00;;;38.97;;
13849;SDS011;6995;52.618;13.488;2024-03-08T08:19:45;48.20;;;43.53;;
13849;SDS011;6995;52.618;13.488;2024-03-08T08:22:11;44.10;;;39.57;;
13849;SDS011;6995;52.618;13.488;2024-03-08T08:24:36;49.50;;;44.70;;
13849;SDS011;6995;52.618;13.488;2024-03-08T08:27:02;46.77;;;42.57;;
13849;SDS011;6995;52.618;13.488;2024-03-08T08:29:28;45.33;;;40.80;;
13849;SDS011;6995;52.618;13.488;2024-03-08T08:31:55;48.03;;;43.53;;
13849;SDS011;6995;52.618;13.488;2024-03-08T08:34:24;46.90;;;42.40;;
13849;SDS011;6995;52.618;13.488;2024-03-08T08:36:51;46.40;;;42.00;;
13849;SDS011;6995;52.618;13.488;2024-03-08T08:39:18;46.63;;;42.20;;
13849;SDS011;6995;52.618;13.488;2024-03-08T08:41:43;45.70;;;41.03;;
13849;SDS011;6995;52.618;13.488;2024-03-08T08:44:09;48.10;;;43.87;;
13849;SDS011;6995;52.618;13.488;2024-03-08T08:46:37;47.13;;;42.20;;
13849;SDS011;6995;52.618;13.488;2024-03-08T08:49:03;46.33;;;42.17;;
13849;SDS011;6995;52.618;13.488;2024-03-08T08:51:29;44.43;;;40.20;;
13849;SDS011;6995;52.618;13.488;2024-03-08T08:53:56;45.23;;;40.83;;
13849;SDS011;6995;52.618;13.488;2024-03-08T08:56:21;44.10;;;40.00;;
13849;SDS011;6995;52.618;13.488;2024-03-08T08:58:47;43.90;;;39.83;;
13849;SDS011;6995;52.618;13.488;2024-03-08T09:01:14;50.37;;;45.80;;
13849;SDS011;6995;52.618;13.488;2024-03-08T09:03:39;44.10;;;40.17;;
13849;SDS011;6995;52.618;13.488;2024-03-08T09:06:06;44.73;;;40.50;;
13849;SDS011;6995;52.618;13.488;2024-03-08T09:08:38;41.07;;;37.03;;
13849;SDS011;6995;52.618;13.488;2024-03-08T09:11:04;42.10;;;38.20;;
13849;SDS011;6995;52.618;13.488;2024-03-08T09:13:30;42.20;;;37.87;;
13849;SDS011;6995;52.618;13.488;2024-03-08T09:15:56;43.20;;;39.27;;
13849;SDS011;6995;52.618;13.488;2024-03-08T09:18:22;41.73;;;37.90;;
13849;SDS011;6995;52.618;13.488;2024-03-08T09:20:49;45.73;;;41.77;;
13849;SDS011;6995;52.618;13.488;2024-03-08T09:23:14;44.83;;;41.03;;
13849;SDS011;6995;52.618;13.488;2024-03-08T09:25:42;46.47;;;42.43;;
13849;SDS011;6995;52.618;13.488;2024-03-08T09:28:08;46.77;;;42.67;;
13849;SDS011;6995;52.618;13.488;2024-03-08T09:30:36;44.37;;;40.17;;
13849;SDS011;6995;52.618;13.488;2024-03-08T09:33:03;44.77;;;40.73;;
13849;SDS011;6995;52.618;13.488;2024-03-08T09:35:29;58.27;;;44.53;;
13849;SDS011;6995;52.618;13.488;2024-03-08T09:37:55;46.50;;;42.30;;
13849;SDS011;6995;52.618;13.488;2024-03-08T09:40:21;47.10;;;42.73;;
13849;SDS011;6995;52.618;13.488;2024-03-08T09:42:48;43.73;;;39.70;;
13849;SDS011;6995;52.618;13.488;2024-03-08T09:45:14;44.40;;;40.30;;
13849;SDS011;6995;52.618;13.488;2024-03-08T09:47:42;44.13;;;40.00;;
13849;SDS011;6995;52.618;13.488;2024-03-08T09:50:09;46.47;;;41.93;;
13849;SDS011;6995;52.618;13.488;2024-03-08T09:52:38;43.87;;;39.77;;
13849;SDS011;6995;52.618;13.488;2024-03-08T09:55:05;43.00;;;38.80;;
13849;SDS011;6995;52.618;13.488;2024-03-08T09:57:32;41.23;;;37.57;;
13849;SDS011;6995;52.618;13.488;2024-03-08T09:59:58;44.60;;;40.70;;
13849;SDS011;6995;52.618;13.488;2024-03-08T10:02:24;42.13;;;37.90;;
13849;SDS011;6995;52.618;13.488;2024-03-08T10:04:51;44.07;;;40.07;;
13849;SDS011;6995;52.618;13.488;2024-03-08T10:07:18;44.07;;;40.20;;
13849;SDS011;6995;52.618;13.488;2024-03-08T10:09:44;42.67;;;38.33;;
13849;SDS011;6995;52.618;13.488;2024-03-08T10:12:15;41.93;;;38.00;;
13849;SDS011;6995;52.618;13.488;2024-03-08T10:14:42;42.93;;;39.07;;
13849;SDS011;6995;52.618;13.488;2024-03-08T10:17:08;42.23;;;38.30;;
13849;SDS011;6995;52.618;13.488;2024-03-08T10:19:34;42.37;;;38.67;;
13849;SDS011;6995;52.618;13.488;2024-03-08T10:22:00;43.17;;;39.23;;
13849;SDS011;6995;52.618;13.488;2024-03-08T10:24:25;45.23;;;40.77;;
13849;SDS011;6995;52.618;13.488;2024-03-08T10:26:52;42.00;;;38.40;;
13849;SDS011;6995;52.618;13.488;2024-03-08T10:29:18;40.87;;;37.20;;
13849;SDS011;6995;52.618;13.488;2024-03-08T10:31:44;42.40;;;38.70;;
13849;SDS011;6995;52.618;13.488;2024-03-08T10:34:10;41.67;;;37.97;;
13849;SDS011;6995;52.618;13.488;2024-03-08T10:36:36;42.83;;;38.87;;
13849;SDS011;6995;52.618;13.488;2024-03-08T10:39:03;40.77;;;37.20;;
13849;SDS011;6995;52.618;13.488;2024-03-08T10:41:39;41.63;;;37.63;;
13849;SDS011;6995;52.618;13.488;2024-03-08T10:44:18;40.27;;;36.60;;
13849;SDS011;6995;52.618;13.488;2024-03-08T10:47:18;39.97;;;36.50;;
13849;SDS011;6995;52.618;13.488;2024-03-08T10:52:45;41.20;;;37.13;;
13849;SDS011;6995;52.618;13.488;2024-03-08T10:55:17;42.83;;;39.03;;
13849;SDS011;6995;52.618;13.488;2024-03-08T10:57:43;42.27;;;38.27;;
13849;SDS011;6995;52.618;13.488;2024-03-08T11:00:08;41.80;;;37.93;;
13849;SDS011;6995;52.618;13.488;2024-03-08T11:02:37;37.93;;;34.63;;
13849;SDS011;6995;52.618;13.488;2024-03-08T11:05:03;39.27;;;35.70;;
13849;SDS011;6995;52.618;13.488;2024-03-08T11:07:33;41.33;;;37.73;;
13849;SDS011;6995;52.618;13.488;2024-03-08T11:10:01;37.60;;;34.10;;
13849;SDS011;6995;52.618;13.488;2024-03-08T11:12:35;42.67;;;39.07;;
13849;SDS011;6995;52.618;13.488;2024-03-08T11:15:02;40.97;;;37.37;;
13849;SDS011;6995;52.618;13.488;2024-03-08T11:20:08;39.00;;;35.50;;
13849;SDS011;6995;52.618;13.488;2024-03-08T11:22:40;38.50;;;35.03;;
13849;SDS011;6995;52.618;13.488;2024-03-08T11:25:16;41.40;;;38.13;;
13849;SDS011;6995;52.618;13.488;2024-03-08T11:28:10;38.30;;;35.00;;
13849;SDS011;6995;52.618;13.488;2024-03-08T11:31:28;41.37;;;37.97;;
13849;SDS011;6995;52.618;13.488;2024-03-08T11:33:34;37.83;;;34.50;;
13849;SDS011;6995;52.618;13.488;2024-03-08T11:38:51;39.97;;;36.53;;
13849;SDS011;6995;52.618;13.488;2024-03-08T11:41:20;40.00;;;36.70;;
13849;SDS011;6995;52.618;13.488;2024-03-08T11:43:48;43.70;;;39.77;;
13849;SDS011;6995;52.618;13.488;2024-03-08T11:46:15;37.50;;;34.30;;
13849;SDS011;6995;52.618;13.488;2024-03-08T11:48:42;40.70;;;37.27;;
13849;SDS011;6995;52.618;13.488;2024-03-08T11:51:09;37.17;;;33.90;;
13849;SDS011;6995;52.618;13.488;2024-03-08T11:53:37;40.03;;;36.63;;
13849;SDS011;6995;52.618;13.488;2024-03-08T11:56:09;38.13;;;34.93;;
13849;SDS011;6995;52.618;13.488;2024-03-08T11:58:37;37.70;;;34.67;;
13849;SDS011;6995;52.618;13.488;2024-03-08T12:01:06;37.00;;;33.87;;
13849;SDS011;6995;52.618;13.488;2024-03-08T12:03:38;38.07;;;34.80;;
13849;SDS011;6995;52.618;13.488;2024-03-08T12:06:08;38.77;;;35.17;;
13849;SDS011;6995;52.618;13.488;2024-03-08T12:08:34;39.80;;;36.40;;
13849;SDS011;6995;52.618;13.488;2024-03-08T12:11:00;37.07;;;33.97;;
13849;SDS011;6995;52.618;13.488;2024-03-08T12:13:32;39.63;;;36.23;;
13849;SDS011;6995;52.618;13.488;2024-03-08T12:15:59;39.37;;;35.90;;
13849;SDS011;6995;52.618;13.488;2024-03-08T12:18:27;38.13;;;34.87;;
13849;SDS011;6995;52.618;13.488;2024-03-08T12:21:05;41.07;;;37.80;;
13849;SDS011;6995;52.618;13.488;2024-03-08T12:24:01;38.57;;;35.10;;
13849;SDS011;6995;52.618;13.488;2024-03-08T12:26:28;40.40;;;36.67;;
13849;SDS011;6995;52.618;13.488;2024-03-08T12:28:53;41.47;;;37.53;;
13849;SDS011;6995;52.618;13.488;2024-03-08T12:31:39;40.17;;;36.53;;
13849;SDS011;6995;52.618;13.488;2024-03-08T12:34:07;39.53;;;36.03;;
13849;SDS011;6995;52.618;13.488;2024-03-08T12:36:36;38.47;;;35.10;;
13849;SDS011;6995;52.618;13.488;2024-03-08T12:39:01;37.47;;;34.30;;
13849;SDS011;6995;52.618;13.488;2024-03-08T12:41:28;40.70;;;37.40;;
13849;SDS011;6995;52.618;13.488;2024-03-08T12:43:54;39.57;;;36.27;;
13849;SDS011;6995;52.618;13.488;2024-03-08T12:46:21;35.93;;;32.80;;
13849;SDS011;6995;52.618;13.488;2024-03-08T12:48:47;38.97;;;35.57;;
13849;SDS011;6995;52.618;13.488;2024-03-08T12:51:13;39.83;;;36.23;;
13849;SDS011;6995;52.618;13.488;2024-03-08T12:53:41;38.30;;;35.03;;
13849;SDS011;6995;52.618;13.488;2024-03-08T12:56:09;38.60;;;35.17;;
13849;SDS011;6995;52.618;13.488;2024-03-08T12:58:35;38.00;;;34.93;;
13849;SDS011;6995;52.618;13.488;2024-03-08T13:01:02;38.87;;;35.73;;
13849;SDS011;6995;52.618;13.488;2024-03-08T13:03:30;36.10;;;33.07;;
13849;SDS011;6995;52.618;13.488;2024-03-08T13:05:56;38.03;;;34.83;;
13849;SDS011;6995;52.618;13.488;2024-03-08T13:08:22;38.13;;;34.80;;
13849;SDS011;6995;52.618;13.488;2024-03-08T13:10:50;38.42;;;35.40;;
13849;SDS011;6995;52.618;13.488;2024-03-08T13:13:16;35.42;;;32.53;;
13849;SDS011;6995;52.618;13.488;2024-03-08T13:15:42;39.22;;;36.13;;
13849;SDS011;6995;52.618;13.488;2024-03-08T13:18:08;40.00;;;36.88;;
13849;SDS011;6995;52.618;13.488;2024-03-08T13:20:35;44.20;;;40.63;;
13849;SDS011;6995;52.618;13.488;2024-03-08T13:23:03;42.05;;;38.58;;
13849;SDS011;6995;52.618;13.488;2024-03-08T13:25:32;41.65;;;38.42;;
13849;SDS011;6995;52.618;13.488;2024-03-08T13:27:58;39.75;;;36.40;;
13849;SDS011;6995;52.618;13.488;2024-03-08T13:30:25;43.10;;;39.85;;
13849;SDS011;6995;52.618;13.488;2024-03-08T13:32:54;43.85;;;40.50;;
13849;SDS011;6995;52.618;13.488;2024-03-08T13:35:20;44.85;;;41.35;;
13849;SDS011;6995;52.618;13.488;2024-03-08T13:37:51;43.17;;;39.90;;
13849;SDS011;6995;52.618;13.488;2024-03-08T13:40:17;45.20;;;41.83;;
13849;SDS011;6995;52.618;13.488;2024-03-08T13:42:46;42.10;;;38.88;;
13849;SDS011;6995;52.618;13.488;2024-03-08T13:45:13;45.70;;;42.10;;
13849;SDS011;6995;52.618;13.488;2024-03-08T13:47:42;41.25;;;38.05;;
13849;SDS011;6995;52.618;13.488;2024-03-08T13:50:09;42.75;;;39.38;;
13849;SDS011;6995;52.618;13.488;2024-03-08T13:52:38;44.92;;;41.50;;
13849;SDS011;6995;52.618;13.488;2024-03-08T13:55:05;40.58;;;37.47;;
13849;SDS011;6995;52.618;13.488;2024-03-08T13:57:31;44.83;;;41.45;;
13849;SDS011;6995;52.618;13.488;2024-03-08T13:59:57;39.85;;;36.30;;
13849;SDS011;6995;52.618;13.488;2024-03-08T14:02:23;41.40;;;37.97;;
13849;SDS011;6995;52.618;13.488;2024-03-08T14:04:53;41.83;;;38.50;;
13849;SDS011;6995;52.618;13.488;2024-03-08T14:07:20;40.38;;;37.05;;
13849;SDS011;6995;52.618;13.488;2024-03-08T14:09:45;40.17;;;36.97;;
13849;SDS011;6995;52.618;13.488;2024-03-08T14:12:11;40.65;;;37.53;;
13849;SDS011;6995;52.618;13.488;2024-03-08T14:14:37;39.33;;;35.90;;
13849;SDS011;6995;52.618;13.488;2024-03-08T14:17:02;38.15;;;35.17;;
13849;SDS011;6995;52.618;13.488;2024-03-08T14:19:29;40.40;;;37.08;;
13849;SDS011;6995;52.618;13.488;2024-03-08T14:21:56;38.53;;;35.72;;
13849;SDS011;6995;52.618;13.488;2024-03-08T14:24:24;39.42;;;36.28;;
13849;SDS011;6995;52.618;13.488;2024-03-08T14:26:49;36.70;;;33.88;;
13849;SDS011;6995;52.618;13.488;2024-03-08T14:29:16;39.30;;;36.00;;